Pagrindinis puslapis
METAR-TAF:

METAR-TAF

Oro uostai :

Bizerte, Tunisas

platuma: 37-15N, ilguma: 009-48E, Aukštis: 5 m

Dabartinis oras

Ataskaita buvo paskelbta 1 valandą ir 43 minutes, ne 00:00 UTC
Vėjas 4 kt iš Vakarų/Pietvakarių
Temperatūra 15°C
Drėgmė 88%
Slėgis 1012 hPa
Matomumas 10 km arba daugiau
Išsisklaidę debesys ne aukštis 2000 ft
Išsisklaidę debesys ne aukštis 3000 ft

METAR: DTTB 220000Z 25004KT 9999 SCT020 SCT030 15/13 Q1012

Laikas: 02:43 (01:43 UTC)

Prognozė

Ataskaita buvo paskelbta 1 valandą ir 43 minutes, ne 00:00 UTC
Prognozė galioja nuo 22 metu 01 UTC su 22 metu 10 UTC
Vėjas 6 kt iš Rytų/Šiaurės Rytų
Matomumas 10 km arba daugiau
Išsisklaidę debesys ne aukštis 2000 ft
Tikimybė 40% :
Laikinai
nuo 22 metu 01 UTC su 22 metu 02 UTC
Vėjas 15 kt iš Pietų/Pietryčių su gūsio iki 25 kt

TAF: DTTB 220000Z 2201/2210 07006KT 9999 SCT020 PROB40 TEMPO 2201/2202 16015G25KT

Orai ataskaitas ir orų prognozės (METAR, TAF).

turimą stotys yra geltonos ir raudonos taškus žemėlapyje.

Perkelti pele per norėdami pamatyti stoties vardą.

Tada spustelėkite, norėdami matyti oro stebėjimo ir prognozės.

Norėdami pakeisti žemėlapį: spustelėkite ant žalios mygtukų su juodo kryžiaus žemyn,; žalią mygtuką su brūkšneliu, jei norite nutolinti; arba žalių rodyklių gretimoms žemėlapius.


METAR-TAF: